createdAt,value
2022-10-15T00:01:06.409Z,1.77
2022-10-15T00:03:36.225Z,1.71
2022-10-15T00:06:05.544Z,1.74
2022-10-15T00:08:34.656Z,1.81
2022-10-15T00:11:08.279Z,1.62
2022-10-15T00:13:35.905Z,1.84
2022-10-15T00:16:03.725Z,1.56
2022-10-15T00:18:30.945Z,1.65
2022-10-15T00:20:58.065Z,1.62
2022-10-15T00:23:25.324Z,1.67
2022-10-15T00:26:06.204Z,1.62
2022-10-15T00:28:34.516Z,1.79
2022-10-15T00:31:06.786Z,1.85
2022-10-15T00:33:34.804Z,1.65
2022-10-15T00:36:05.163Z,1.70
2022-10-15T00:38:32.384Z,1.85
2022-10-15T00:40:59.623Z,2.14
2022-10-15T00:43:39.364Z,1.85
2022-10-15T00:46:22.846Z,2.03
2022-10-15T00:48:55.931Z,1.71
2022-10-15T00:51:29.465Z,2.08
2022-10-15T00:53:57.226Z,1.92
2022-10-15T00:56:29.927Z,1.97
2022-10-15T00:58:59.565Z,1.94
2022-10-15T01:01:26.733Z,2.06
2022-10-15T01:03:56.885Z,2.12
2022-10-15T01:06:26.044Z,2.07
2022-10-15T01:08:53.744Z,2.04
2022-10-15T01:11:36.808Z,1.72
2022-10-15T01:14:28.684Z,1.92
2022-10-15T01:17:05.107Z,1.91
2022-10-15T01:20:04.127Z,1.89
2022-10-15T01:22:53.567Z,1.84
2022-10-15T01:25:34.407Z,1.80
2022-10-15T01:28:18.929Z,1.73
2022-10-15T01:30:56.289Z,1.84
2022-10-15T01:33:33.165Z,1.77
2022-10-15T01:36:12.285Z,1.77
2022-10-15T01:38:51.629Z,1.76
2022-10-15T01:41:30.544Z,1.78
2022-10-15T01:44:03.907Z,1.50
2022-10-15T01:46:40.944Z,1.98
2022-10-15T01:49:13.245Z,1.81
2022-10-15T01:51:44.365Z,1.71
2022-10-15T01:54:16.686Z,1.70
2022-10-15T01:56:46.504Z,1.92
2022-10-15T01:59:13.946Z,1.99
2022-10-15T02:01:44.375Z,1.95
2022-10-15T02:04:20.265Z,1.90
2022-10-15T02:06:55.765Z,1.93
2022-10-15T02:09:34.185Z,1.83
2022-10-15T02:12:09.604Z,1.87
2022-10-15T02:14:46.743Z,1.93
2022-10-15T02:17:19.824Z,1.64
2022-10-15T02:19:52.589Z,2.00
2022-10-15T02:22:25.765Z,2.05
2022-10-15T02:24:59.027Z,1.81
2022-10-15T02:27:30.545Z,1.98
2022-10-15T02:30:01.977Z,1.97
2022-10-15T02:32:33.606Z,1.98
2022-10-15T02:35:03.190Z,1.85
2022-10-15T02:37:33.224Z,1.24
2022-10-15T02:40:00.344Z,1.38
2022-10-15T02:42:28.064Z,1.41
2022-10-15T02:44:55.111Z,1.50
2022-10-15T02:47:22.308Z,1.43
2022-10-15T02:49:50.967Z,1.34
2022-10-15T02:52:18.044Z,1.23
2022-10-15T02:54:45.145Z,1.43
2022-10-15T02:57:12.204Z,1.32
2022-10-15T02:59:39.304Z,1.41
2022-10-15T03:02:06.466Z,1.32
2022-10-15T03:04:33.725Z,1.40
2022-10-15T03:07:02.264Z,1.39
2022-10-15T03:09:29.307Z,1.36
2022-10-15T03:11:56.325Z,1.35
2022-10-15T03:14:23.428Z,1.46
2022-10-15T03:16:50.604Z,1.47
2022-10-15T03:19:17.928Z,1.57
2022-10-15T03:21:44.984Z,1.50
2022-10-15T03:24:13.446Z,1.32
2022-10-15T03:26:40.564Z,1.39
2022-10-15T03:29:07.643Z,1.47
2022-10-15T03:31:34.687Z,1.49
2022-10-15T03:34:01.847Z,1.59
2022-10-15T03:36:28.889Z,1.48
2022-10-15T03:38:55.928Z,1.57
2022-10-15T03:41:24.508Z,1.59
2022-10-15T03:43:51.550Z,1.58
2022-10-15T03:46:18.624Z,1.53
2022-10-15T03:48:49.303Z,1.52
2022-10-15T03:51:19.994Z,1.48
2022-10-15T03:53:50.666Z,1.61
2022-10-15T03:56:17.765Z,1.48
2022-10-15T03:58:46.581Z,1.46
2022-10-15T04:01:16.606Z,1.47
2022-10-15T04:03:44.602Z,1.23
2022-10-15T04:06:11.940Z,1.52
2022-10-15T04:08:39.108Z,1.45
2022-10-15T04:11:06.367Z,1.42
2022-10-15T04:13:33.516Z,1.39
2022-10-15T04:16:04.355Z,1.45
2022-10-15T04:18:31.396Z,1.39
2022-10-15T04:20:59.205Z,1.30
2022-10-15T04:23:26.187Z,1.40
2022-10-15T04:25:53.370Z,1.34
2022-10-15T04:28:20.802Z,1.31
2022-10-15T04:30:47.888Z,1.49
2022-10-15T04:33:16.364Z,1.30
2022-10-15T04:35:43.406Z,1.28
2022-10-15T04:38:10.567Z,1.64
2022-10-15T04:40:37.627Z,1.49
2022-10-15T04:43:04.686Z,1.57
2022-10-15T04:45:31.768Z,1.47
2022-10-15T04:47:58.806Z,1.49
2022-10-15T04:50:27.326Z,1.67
2022-10-15T04:52:54.386Z,1.67
2022-10-15T04:55:21.346Z,1.37
2022-10-15T04:57:48.424Z,1.59
2022-10-15T05:00:15.548Z,1.56
2022-10-15T05:02:43.046Z,1.69
2022-10-15T05:05:10.126Z,1.78
2022-10-15T05:07:38.628Z,1.67
2022-10-15T05:10:07.147Z,1.36
2022-10-15T05:12:34.157Z,1.55
2022-10-15T05:15:01.308Z,1.44
2022-10-15T05:17:30.065Z,1.71
2022-10-15T05:19:57.084Z,1.50
2022-10-15T05:22:24.717Z,1.59
2022-10-15T05:24:53.466Z,1.64
2022-10-15T05:27:20.545Z,1.60
2022-10-15T05:29:47.606Z,1.53
2022-10-15T05:32:14.749Z,1.58
2022-10-15T05:34:41.825Z,1.44
2022-10-15T05:37:08.893Z,1.56
2022-10-15T05:39:35.966Z,1.42
2022-10-15T05:42:04.524Z,1.45
2022-10-15T05:44:31.566Z,1.64
2022-10-15T05:46:58.604Z,1.51
2022-10-15T05:49:25.695Z,1.63
2022-10-15T05:51:52.826Z,1.74
2022-10-15T05:54:19.989Z,1.74
2022-10-15T05:56:47.087Z,1.70
2022-10-15T05:59:15.546Z,1.75
2022-10-15T06:01:42.658Z,1.73
2022-10-15T06:04:10.305Z,1.53
2022-10-15T06:06:37.325Z,1.59
2022-10-15T06:09:04.588Z,1.61
2022-10-15T06:11:31.667Z,1.56
2022-10-15T06:13:58.725Z,1.68
2022-10-15T06:16:27.246Z,1.45
2022-10-15T06:18:54.305Z,1.59
2022-10-15T06:21:21.484Z,1.44
2022-10-15T06:23:48.626Z,1.34
2022-10-15T06:26:16.373Z,1.59
2022-10-15T06:28:43.672Z,1.62
2022-10-15T06:31:10.847Z,1.49
2022-10-15T06:33:39.347Z,1.60
2022-10-15T06:36:08.910Z,1.58
2022-10-15T06:38:36.689Z,1.60
2022-10-15T06:41:04.767Z,1.52
2022-10-15T06:43:34.866Z,1.68
2022-10-15T06:46:04.349Z,1.45
2022-10-15T06:48:31.666Z,1.54
2022-10-15T06:51:02.368Z,1.43
2022-10-15T06:53:30.705Z,1.56
2022-10-15T06:55:58.345Z,1.63
2022-10-15T06:58:25.752Z,1.59
2022-10-15T07:00:52.807Z,1.45
2022-10-15T07:03:19.965Z,1.54
2022-10-15T07:05:47.066Z,1.74
2022-10-15T07:08:19.155Z,1.73
2022-10-15T07:10:47.585Z,1.64
2022-10-15T07:13:14.687Z,1.56
2022-10-15T07:15:41.724Z,1.61
2022-10-15T07:18:08.802Z,1.62
2022-10-15T07:20:35.813Z,1.66
2022-10-15T07:23:03.497Z,1.67
2022-10-15T07:25:32.474Z,1.59
2022-10-15T07:27:59.570Z,1.86
2022-10-15T07:30:27.091Z,1.71
2022-10-15T07:32:55.831Z,1.65
2022-10-15T07:35:23.170Z,1.67
2022-10-15T07:37:50.249Z,1.95
2022-10-15T07:40:17.656Z,1.87
2022-10-15T07:42:52.955Z,1.83
2022-10-15T07:45:20.056Z,1.84
2022-10-15T07:47:47.085Z,1.70
2022-10-15T07:50:14.266Z,1.63
2022-10-15T07:52:41.968Z,1.74
2022-10-15T07:55:09.927Z,1.31
2022-10-15T07:57:37.387Z,1.55
2022-10-15T08:00:07.920Z,1.78
2022-10-15T08:02:35.020Z,1.33
2022-10-15T08:05:02.102Z,1.37
2022-10-15T08:07:29.160Z,1.55
2022-10-15T08:09:56.221Z,1.67
2022-10-15T08:12:23.642Z,1.37
2022-10-15T08:14:51.000Z,1.43
2022-10-15T08:17:19.493Z,1.60
2022-10-15T08:19:46.611Z,1.66
2022-10-15T08:22:13.631Z,1.78
2022-10-15T08:24:40.711Z,1.46
2022-10-15T08:27:07.810Z,1.43
2022-10-15T08:29:34.912Z,1.46
2022-10-15T08:32:02.030Z,1.49
2022-10-15T08:34:30.489Z,1.49
2022-10-15T08:36:57.572Z,1.91
2022-10-15T08:39:24.632Z,1.90
2022-10-15T08:41:55.910Z,1.71
2022-10-15T08:44:27.594Z,2.12
2022-10-15T08:47:02.931Z,1.83
2022-10-15T08:49:43.935Z,1.72
2022-10-15T08:52:25.012Z,1.62
2022-10-15T08:54:53.211Z,1.84
2022-10-15T08:57:36.949Z,1.60
2022-10-15T09:00:12.890Z,1.77
2022-10-15T09:02:50.716Z,1.67
2022-10-15T09:05:30.149Z,1.71
2022-10-15T09:08:12.490Z,2.03
2022-10-15T09:10:46.872Z,1.59
2022-10-15T09:13:21.431Z,1.46
2022-10-15T09:15:54.153Z,1.67
2022-10-15T09:18:25.232Z,1.80
2022-10-15T09:20:54.912Z,1.66
2022-10-15T09:23:25.635Z,1.74
2022-10-15T09:26:02.514Z,1.82
2022-10-15T09:28:43.056Z,1.81
2022-10-15T09:31:17.834Z,1.55
2022-10-15T09:33:52.634Z,1.59
2022-10-15T09:36:35.211Z,1.74
2022-10-15T09:39:20.851Z,1.78
2022-10-15T09:42:01.672Z,1.63
2022-10-15T09:44:36.193Z,1.61
2022-10-15T09:47:16.459Z,1.60
2022-10-15T09:49:43.576Z,1.81
2022-10-15T09:52:21.975Z,1.96
2022-10-15T09:55:06.812Z,1.86
2022-10-15T09:57:36.794Z,2.06
2022-10-15T10:00:07.782Z,2.02
2022-10-15T10:02:34.868Z,2.12
2022-10-15T10:05:20.873Z,2.10
2022-10-15T10:07:49.451Z,2.05
2022-10-15T10:10:26.539Z,2.10
2022-10-15T10:12:56.178Z,1.87
2022-10-15T10:15:33.415Z,2.03
2022-10-15T10:18:01.038Z,1.91
2022-10-15T10:20:29.553Z,1.97
2022-10-15T10:23:00.355Z,2.57
2022-10-15T10:25:37.974Z,2.13
2022-10-15T10:28:17.091Z,1.79
2022-10-15T10:30:53.890Z,2.18
2022-10-15T10:33:26.853Z,1.84
2022-10-15T10:35:54.504Z,1.90
2022-10-15T10:38:25.175Z,1.62
2022-10-15T10:40:55.867Z,1.91
2022-10-15T10:43:27.008Z,1.92
2022-10-15T10:45:56.354Z,1.92
2022-10-15T10:48:26.325Z,1.87
2022-10-15T10:51:09.262Z,1.58
2022-10-15T10:53:50.207Z,1.75
2022-10-15T10:56:23.466Z,1.84
2022-10-15T10:58:59.546Z,1.63
2022-10-15T11:01:28.166Z,1.65
2022-10-15T11:03:55.868Z,1.70
2022-10-15T11:06:58.387Z,1.58
2022-10-15T11:09:52.324Z,1.57
2022-10-15T11:12:52.292Z,1.69
2022-10-15T11:15:36.971Z,1.62
2022-10-15T11:18:32.368Z,1.49
2022-10-15T11:21:14.426Z,2.02
2022-10-15T11:24:02.525Z,1.97
2022-10-15T11:27:10.508Z,1.69
2022-10-15T11:29:49.945Z,1.83
2022-10-15T11:32:47.844Z,1.86
2022-10-15T11:35:52.566Z,1.82
2022-10-15T11:38:30.410Z,1.47
2022-10-15T11:41:26.086Z,1.66
2022-10-15T11:44:13.906Z,1.99
2022-10-15T11:46:50.426Z,1.95
2022-10-15T11:52:36.625Z,1.59
2022-10-15T11:55:14.125Z,1.70
2022-10-15T11:57:45.507Z,1.60
2022-10-15T12:00:31.929Z,1.77
2022-10-15T12:03:07.264Z,1.59
2022-10-15T12:05:41.346Z,1.33
2022-10-15T12:08:13.846Z,1.28
2022-10-15T12:11:02.847Z,1.16
2022-10-15T12:13:38.646Z,1.41
2022-10-15T12:16:16.627Z,1.48
2022-10-15T12:18:50.408Z,1.39
2022-10-15T12:21:38.807Z,1.37
2022-10-15T12:24:44.466Z,1.87
2022-10-15T12:27:16.752Z,1.77
2022-10-15T12:29:44.466Z,1.65
2022-10-15T12:32:24.810Z,1.42
2022-10-15T12:34:57.348Z,1.57
2022-10-15T12:37:27.972Z,1.54
2022-10-15T12:39:58.850Z,1.39
2022-10-15T12:42:31.126Z,1.45
2022-10-15T12:45:02.068Z,1.45
2022-10-15T12:47:48.728Z,1.37
2022-10-15T12:50:20.312Z,1.55
2022-10-15T12:53:03.107Z,1.47
2022-10-15T12:55:33.112Z,1.55
2022-10-15T12:58:04.107Z,1.53
2022-10-15T13:00:37.660Z,1.43
2022-10-15T13:03:34.526Z,1.60
2022-10-15T13:06:24.113Z,1.36
2022-10-15T13:08:57.385Z,1.28
2022-10-15T13:11:31.284Z,1.40
2022-10-15T13:14:02.645Z,1.43
2022-10-15T13:16:31.043Z,1.38
2022-10-15T13:18:59.984Z,1.15
2022-10-15T13:21:48.525Z,1.19
2022-10-15T13:24:19.164Z,1.42
2022-10-15T13:26:46.465Z,1.22
2022-10-15T13:29:17.269Z,1.28
2022-10-15T13:31:45.060Z,1.39
2022-10-15T13:34:24.845Z,1.34
2022-10-15T13:36:54.607Z,1.97
2022-10-15T13:39:29.549Z,1.74
2022-10-15T13:42:08.324Z,1.54
2022-10-15T13:44:36.243Z,2.24
2022-10-15T13:47:29.604Z,1.93
2022-10-15T13:50:22.066Z,1.46
2022-10-15T13:52:55.444Z,1.60
2022-10-15T13:55:25.705Z,1.59
2022-10-15T13:58:00.350Z,1.04
2022-10-15T14:00:32.687Z,1.14
2022-10-15T14:03:14.184Z,1.17
2022-10-15T14:05:43.368Z,1.13
2022-10-15T14:08:33.629Z,1.09
2022-10-15T14:11:01.323Z,1.07
2022-10-15T14:13:29.207Z,1.34
2022-10-15T14:16:15.713Z,1.01
2022-10-15T14:18:48.992Z,1.20
2022-10-15T14:21:21.752Z,1.23
2022-10-15T14:23:50.487Z,1.14
2022-10-15T14:26:24.988Z,1.38
2022-10-15T14:28:53.168Z,1.41
2022-10-15T14:31:32.013Z,1.27
2022-10-15T14:33:59.307Z,1.41
2022-10-15T14:36:31.065Z,1.37
2022-10-15T14:39:29.506Z,1.38
2022-10-15T14:41:59.067Z,1.52
2022-10-15T14:44:27.037Z,1.44
2022-10-15T14:47:03.118Z,1.35
2022-10-15T14:49:34.579Z,1.42
2022-10-15T14:52:07.916Z,1.54
2022-10-15T14:54:44.456Z,1.61
2022-10-15T14:57:21.013Z,1.48
2022-10-15T14:59:48.628Z,1.35
2022-10-15T15:02:17.137Z,1.25
2022-10-15T15:04:51.434Z,1.54
2022-10-15T15:07:21.633Z,1.36
2022-10-15T15:09:50.746Z,1.44
2022-10-15T15:12:24.238Z,1.39
2022-10-15T15:14:54.307Z,1.56
2022-10-15T15:17:23.790Z,1.69
2022-10-15T15:19:53.119Z,1.37
2022-10-15T15:22:28.646Z,1.29
2022-10-15T15:24:56.985Z,1.62
2022-10-15T15:27:26.666Z,1.42
2022-10-15T15:29:55.407Z,1.44
2022-10-15T15:32:24.435Z,1.62
2022-10-15T15:34:54.120Z,1.30
2022-10-15T15:37:24.427Z,1.36
2022-10-15T15:39:51.970Z,1.62
2022-10-15T15:42:21.854Z,1.34
2022-10-15T15:44:49.823Z,1.23
2022-10-15T15:47:17.530Z,1.22
2022-10-15T15:49:44.545Z,1.28
2022-10-15T15:52:13.649Z,1.58
2022-10-15T15:54:42.509Z,1.50
2022-10-15T15:57:09.671Z,1.62
2022-10-15T15:59:36.744Z,1.94
2022-10-15T16:02:04.087Z,1.32
2022-10-15T16:04:31.187Z,1.28
2022-10-15T16:06:58.248Z,1.50
2022-10-15T16:09:27.586Z,1.86
2022-10-15T16:11:56.149Z,1.95
2022-10-15T16:14:23.366Z,2.04
2022-10-15T16:16:50.427Z,2.04
2022-10-15T16:19:17.549Z,2.19
2022-10-15T16:21:44.630Z,2.15
2022-10-15T16:24:11.749Z,2.07
2022-10-15T16:26:38.806Z,2.23
2022-10-15T16:29:07.427Z,2.37
2022-10-15T16:31:34.660Z,2.08
2022-10-15T16:34:01.911Z,1.89
2022-10-15T16:36:29.293Z,1.79
2022-10-15T16:38:57.349Z,1.67
2022-10-15T16:41:24.851Z,1.69
2022-10-15T16:43:52.108Z,2.32
2022-10-15T16:46:21.006Z,2.66
2022-10-15T16:48:53.088Z,1.88
2022-10-15T16:51:21.150Z,2.04
2022-10-15T16:53:49.605Z,1.98
2022-10-15T16:56:18.830Z,2.13
2022-10-15T16:58:46.567Z,2.23
2022-10-15T17:01:16.200Z,2.88
2022-10-15T17:03:45.073Z,2.18
2022-10-15T17:06:15.172Z,2.50
2022-10-15T17:08:45.805Z,2.32
2022-10-15T17:11:15.928Z,2.03
2022-10-15T17:13:43.508Z,1.88
2022-10-15T17:16:13.625Z,1.85
2022-10-15T17:18:41.580Z,1.62
2022-10-15T17:21:13.426Z,2.27
2022-10-15T17:23:41.061Z,2.52
2022-10-15T17:26:10.640Z,2.40
2022-10-15T17:28:38.378Z,2.78
2022-10-15T17:31:08.438Z,2.48
2022-10-15T17:33:37.502Z,1.72
2022-10-15T17:36:07.193Z,1.93
2022-10-15T17:38:35.894Z,2.50
2022-10-15T17:41:09.022Z,3.26
2022-10-15T17:43:39.923Z,3.31
2022-10-15T17:46:11.022Z,2.32
2022-10-15T17:48:38.421Z,2.17
2022-10-15T17:51:06.265Z,2.38
2022-10-15T17:53:36.002Z,2.77
2022-10-15T17:56:10.982Z,3.05
2022-10-15T17:58:39.302Z,2.59
2022-10-15T18:01:07.702Z,2.25
2022-10-15T18:03:34.703Z,3.27
2022-10-15T18:06:07.605Z,2.94
2022-10-15T18:08:36.343Z,2.84
2022-10-15T18:11:04.283Z,2.76
2022-10-15T18:13:31.926Z,3.07
2022-10-15T18:15:59.761Z,2.67
2022-10-15T18:18:28.383Z,3.71
2022-10-15T18:20:55.861Z,2.97
2022-10-15T18:23:22.988Z,2.50
2022-10-15T18:26:00.641Z,3.01
2022-10-15T18:28:27.704Z,3.64
2022-10-15T18:30:54.823Z,3.23
2022-10-15T18:33:21.992Z,3.18
2022-10-15T18:35:49.183Z,3.10
2022-10-15T18:38:16.244Z,2.95
2022-10-15T18:40:43.361Z,3.43
2022-10-15T18:43:12.429Z,2.62
2022-10-15T18:45:40.008Z,2.74
2022-10-15T18:48:07.101Z,3.23
2022-10-15T18:50:34.224Z,4.07
2022-10-15T18:53:01.280Z,3.66
2022-10-15T18:55:29.122Z,3.77
2022-10-15T18:57:56.244Z,3.84
2022-10-15T19:00:24.749Z,3.67
2022-10-15T19:02:51.802Z,3.02
2022-10-15T19:05:18.981Z,2.58
2022-10-15T19:07:46.171Z,2.58
2022-10-15T19:10:15.317Z,2.85
2022-10-15T19:12:44.904Z,3.40
2022-10-15T19:15:12.121Z,3.85
2022-10-15T19:17:40.642Z,3.55
2022-10-15T19:20:08.664Z,3.60
2022-10-15T19:22:35.824Z,3.22
2022-10-15T19:25:02.883Z,2.30
2022-10-15T19:27:29.983Z,2.15
2022-10-15T19:29:57.070Z,2.15
2022-10-15T19:32:24.203Z,2.76
2022-10-15T19:34:52.743Z,2.94
2022-10-15T19:37:19.834Z,3.12
2022-10-15T19:39:46.904Z,3.11
2022-10-15T19:42:14.144Z,2.58
2022-10-15T19:44:41.441Z,2.74
2022-10-15T19:47:08.834Z,2.60
2022-10-15T19:49:36.122Z,2.73
2022-10-15T19:52:05.003Z,2.65
2022-10-15T19:54:32.207Z,2.83
2022-10-15T19:56:59.283Z,3.08
2022-10-15T19:59:26.442Z,2.84
2022-10-15T20:01:53.583Z,3.22
2022-10-15T20:04:20.743Z,2.50
2022-10-15T20:06:47.881Z,3.30
2022-10-15T20:09:16.445Z,3.59
2022-10-15T20:11:43.502Z,3.41
2022-10-15T20:14:11.346Z,3.11
2022-10-15T20:16:38.702Z,3.13
2022-10-15T20:19:06.722Z,2.61
2022-10-15T20:21:33.904Z,2.93
2022-10-15T20:24:01.323Z,2.86
2022-10-15T20:26:30.000Z,3.18
2022-10-15T20:28:57.288Z,2.72
2022-10-15T20:31:24.403Z,2.45
2022-10-15T20:33:51.445Z,2.33
2022-10-15T20:36:23.551Z,2.67
2022-10-15T20:38:51.944Z,2.15
2022-10-15T20:41:19.776Z,2.33
2022-10-15T20:43:53.602Z,2.33
2022-10-15T20:46:26.023Z,2.18
2022-10-15T20:48:55.990Z,2.31
2022-10-15T20:51:27.635Z,2.47
2022-10-15T20:53:57.771Z,2.11
2022-10-15T20:56:24.849Z,1.99
2022-10-15T20:58:53.666Z,2.12
2022-10-15T21:01:20.787Z,3.04
2022-10-15T21:03:47.962Z,2.74
2022-10-15T21:06:15.068Z,2.42
2022-10-15T21:08:42.202Z,2.11
2022-10-15T21:11:09.382Z,2.35
2022-10-15T21:13:36.412Z,2.32
2022-10-15T21:16:07.650Z,2.52
2022-10-15T21:18:36.404Z,2.60
2022-10-15T21:21:05.260Z,2.27
2022-10-15T21:23:33.302Z,1.92
2022-10-15T21:26:05.211Z,2.18
2022-10-15T21:28:32.563Z,2.19
2022-10-15T21:30:59.784Z,2.90
2022-10-15T21:33:29.644Z,2.50
2022-10-15T21:35:56.781Z,1.93
2022-10-15T21:38:23.902Z,1.88
2022-10-15T21:40:51.161Z,1.90
2022-10-15T21:43:18.143Z,2.03
2022-10-15T21:45:45.241Z,3.61
2022-10-15T21:48:12.403Z,4.98
2022-10-15T21:50:46.303Z,4.68
2022-10-15T21:53:13.461Z,4.39
2022-10-15T21:55:40.642Z,4.06
2022-10-15T21:58:07.766Z,3.48
2022-10-15T22:00:34.911Z,3.76
2022-10-15T22:03:02.027Z,3.50
2022-10-15T22:05:29.122Z,3.64
2022-10-15T22:07:57.601Z,3.32
2022-10-15T22:10:24.823Z,3.21
2022-10-15T22:12:52.263Z,3.11
2022-10-15T22:15:19.361Z,3.30
2022-10-15T22:17:46.441Z,2.85
2022-10-15T22:20:13.621Z,3.08
2022-10-15T22:22:40.782Z,2.87
2022-10-15T22:25:10.522Z,3.46
2022-10-15T22:27:37.681Z,3.99
2022-10-15T22:30:06.480Z,3.19
2022-10-15T22:32:33.680Z,3.26
2022-10-15T22:35:00.741Z,3.05
2022-10-15T22:37:27.799Z,3.29
2022-10-15T22:39:54.963Z,3.68
2022-10-15T22:42:23.872Z,3.67
2022-10-15T22:44:51.260Z,3.33
2022-10-15T22:47:19.220Z,3.51
2022-10-15T22:49:46.662Z,3.26
2022-10-15T22:52:13.792Z,3.08
2022-10-15T22:54:40.881Z,2.97
2022-10-15T22:57:08.499Z,3.31
2022-10-15T22:59:37.702Z,3.06
2022-10-15T23:02:04.801Z,3.22
2022-10-15T23:04:32.080Z,3.39
2022-10-15T23:06:59.112Z,3.73
2022-10-15T23:09:26.482Z,3.37
2022-10-15T23:11:53.613Z,3.06
2022-10-15T23:14:20.742Z,3.23
2022-10-15T23:16:49.301Z,3.08
2022-10-15T23:19:19.144Z,2.99
2022-10-15T23:21:49.180Z,3.02
2022-10-15T23:24:18.041Z,2.75
2022-10-15T23:26:45.682Z,2.81
2022-10-15T23:29:15.701Z,3.02
2022-10-15T23:31:42.962Z,3.41
2022-10-15T23:34:15.601Z,2.56
2022-10-15T23:36:43.481Z,2.77
2022-10-15T23:39:14.420Z,2.54
2022-10-15T23:41:41.968Z,3.02
2022-10-15T23:44:09.554Z,2.61
2022-10-15T23:46:36.745Z,2.42
2022-10-15T23:49:04.180Z,2.27
2022-10-15T23:51:33.441Z,2.17
2022-10-15T23:54:01.765Z,2.14
2022-10-15T23:56:30.321Z,1.96
2022-10-15T23:58:59.803Z,2.40
